Columbia (COU/KCOU)

Map

Destinations

Information

Location
Columbia, Missouri
Local Time
23:32 / 11:32 pm
GMT Time
05:32 / 5:32 am
Gates
Unassigned
No FAA reported delays
METAR KCOU 260454Z AUTO 16005KT 10SM BKN110 M02/M12 A3009 RMK AO2 SLP198 T10171117
TAF KCOU 252320Z 2600/2624 VRB04KT P6SM SKC FM260700 17007KT P6SM FEW250 FM261300 19010KT P6SM BKN130 FM261700 21009KT P6SM VCSH OVC050 FM262100 22010KT P6SM OVC040
  • No charts available